Time;durP1;ratioP1;P1;durP2;ratioP2;P2;SDS_P1;SDS_P2;PMS_P1;PMS_P2;Temp;Humidity;BMP_temperature;BMP_pressure;BME280_temperature;BME280_humidity;BME280_pressure;Samples;Min_cycle;Max_cycle;Signal;HPM_P1;HPM_P2
2021/04/14 00:00:57;;;;;;;3.30;0.90;;;5.80;99.90;;;5.24;84.40;101271.22;5050707;28;20044;-51
2021/04/14 00:03:28;;;;;;;18.45;4.18;;;5.90;99.90;;;5.21;83.88;101268.81;5051105;28;20028;-47
2021/04/14 00:05:54;;;;;;;3.63;1.35;;;5.80;99.90;;;5.23;83.48;101263.56;5051931;28;20037;-52
2021/04/14 00:08:20;;;;;;;5.25;0.82;;;5.90;99.90;;;5.22;83.56;101259.31;5050316;28;20139;-51
2021/04/14 00:10:48;;;;;;;3.30;1.13;;;5.80;99.90;;;5.12;84.37;101263.38;5051581;28;20039;-51
2021/04/14 00:13:25;;;;;;;3.35;1.00;;;5.80;99.90;;;5.05;84.69;101262.06;5052769;28;20033;-48
2021/04/14 00:15:56;;;;;;;3.42;0.80;;;5.70;99.90;;;5.05;84.98;101262.06;5068449;28;20497;-49
2021/04/14 00:18:22;;;;;;;4.28;1.70;;;5.70;99.90;;;5.06;84.60;101259.41;5051270;28;20041;-47
2021/04/14 00:20:49;;;;;;;21.83;1.98;;;5.70;99.90;;;5.02;85.14;101263.09;5050089;28;20432;-47
2021/04/14 00:23:18;;;;;;;4.05;1.10;;;5.70;99.90;;;5.07;84.79;101265.41;5050353;28;20025;-53
2021/04/14 00:25:47;;;;;;;2.95;0.73;;;5.70;99.90;;;5.02;84.64;101257.09;5049888;28;20053;-50
2021/04/14 00:28:17;;;;;;;2.50;0.90;;;5.70;99.90;;;4.99;84.98;101264.09;5050681;28;20025;-46
2021/04/14 00:30:44;;;;;;;2.33;0.98;;;5.70;99.90;;;4.94;85.29;101263.53;5050237;28;20043;-48
2021/04/14 00:33:11;;;;;;;2.45;1.00;;;5.60;99.90;;;4.95;84.87;101265.19;5059802;28;20115;-49
2021/04/14 00:35:38;;;;;;;2.75;1.30;;;5.60;99.90;;;4.95;84.14;101265.19;5069775;28;20507;-47
2021/04/14 00:38:04;;;;;;;1.92;0.95;;;5.60;99.90;;;4.87;84.35;101267.38;5064740;28;20448;-46
2021/04/14 00:40:35;;;;;;;3.10;1.10;;;5.50;99.90;;;4.83;84.58;101273.63;5070105;28;20055;-48
2021/04/14 00:43:03;;;;;;;4.32;0.88;;;5.50;99.90;;;4.78;84.63;101270.47;5054507;28;20055;-50
2021/04/14 00:45:29;;;;;;;3.80;1.20;;;5.40;99.90;;;4.80;84.13;101272.97;5050822;28;20037;-47
2021/04/14 00:47:55;;;;;;;4.30;1.02;;;5.50;99.90;;;4.73;84.84;101269.91;5049588;28;20442;-48
2021/04/14 00:50:26;;;;;;;3.65;1.17;;;5.40;99.90;;;4.69;84.82;101265.03;5049970;28;20044;-49
2021/04/14 00:52:52;;;;;;;3.90;1.50;;;5.40;99.90;;;4.60;84.99;101266.38;5049950;28;20108;-48
2021/04/14 00:55:23;;;;;;;2.40;1.00;;;5.30;99.90;;;4.57;85.16;101269.13;5049916;28;20033;-46
2021/04/14 00:57:49;;;;;;;3.47;0.98;;;5.20;99.90;;;4.56;84.75;101260.56;5050218;28;20037;-48
2021/04/14 01:00:40;;;;;;;3.38;1.05;;;5.20;99.90;;;4.61;84.45;101270.63;5049393;28;20064;-45
2021/04/14 01:03:20;;;;;;;3.58;1.23;;;5.20;99.90;;;4.59;84.46;101269.88;5049872;28;20400;-45
2021/04/14 01:05:51;;;;;;;3.83;0.85;;;5.20;99.90;;;4.56;84.40;101264.91;5049698;28;20037;-47
2021/04/14 01:08:18;;;;;;;2.65;0.90;;;5.20;99.90;;;4.56;83.65;101264.91;5051561;28;20037;-46
2021/04/14 01:10:44;;;;;;;1.25;0.80;;;5.20;99.90;;;4.51;83.45;101269.47;5050525;28;20076;-45
2021/04/14 01:13:12;;;;;;;4.18;0.90;;;5.20;99.90;;;4.49;83.77;101263.56;5051364;28;20033;-49
2021/04/14 01:15:43;;;;;;;2.80;1.17;;;5.10;99.90;;;4.49;84.03;101266.97;5048899;28;20040;-48
2021/04/14 01:18:14;;;;;;;4.35;1.63;;;5.10;99.90;;;4.46;83.65;101267.16;5052243;28;20045;-46
2021/04/14 01:20:40;;;;;;;3.50;1.17;;;5.10;99.90;;;4.44;83.80;101271.56;5062149;28;20467;-46
2021/04/14 01:23:08;;;;;;;3.15;0.90;;;5.10;99.90;;;4.38;83.76;101265.91;5049095;28;20025;-47
2021/04/14 01:25:39;;;;;;;2.20;1.50;;;5.00;99.90;;;4.38;83.78;101266.75;5050454;28;20131;-49
2021/04/14 01:28:19;;;;;;;2.67;1.25;;;5.00;99.90;;;4.34;84.18;101266.09;5048941;28;20430;-44
2021/04/14 01:30:46;;;;;;;3.85;1.20;;;5.00;99.90;;;4.34;83.63;101263.50;5050468;28;20036;-49
2021/04/14 01:33:14;;;;;;;2.17;1.13;;;5.00;99.90;;;4.30;83.83;101263.75;5057203;28;20067;-47
2021/04/14 01:35:41;;;;;;;5.75;1.35;;;4.90;99.90;;;4.26;83.61;101263.09;5066711;28;20152;-46
2021/04/14 01:38:07;;;;;;;3.67;1.60;;;4.90;99.90;;;4.27;83.71;101266.50;5051130;28;20098;-46
2021/04/14 01:40:34;;;;;;;3.47;1.15;;;4.80;99.90;;;4.27;83.56;101266.50;5048182;28;20116;-51
2021/04/14 01:43:01;;;;;;;3.20;1.20;;;4.90;99.90;;;4.21;84.10;101254.81;5063640;28;20055;-53
2021/04/14 01:45:36;;;;;;;2.22;0.88;;;4.80;99.90;;;4.19;84.20;101261.78;5049876;28;20511;-47
2021/04/14 01:48:03;;;;;;;4.47;1.35;;;4.80;99.90;;;4.10;84.05;101261.47;5050283;28;20159;-49
2021/04/14 01:50:29;;;;;;;3.60;1.30;;;4.70;99.90;;;4.07;84.42;101267.63;5048627;28;20036;-46
2021/04/14 01:52:56;;;;;;;2.45;0.85;;;4.70;99.90;;;4.06;84.14;101258.22;5051085;28;20036;-47
2021/04/14 01:55:24;;;;;;;3.10;1.10;;;4.60;99.90;;;4.01;83.94;101262.78;5048280;28;20520;-44
2021/04/14 01:57:51;;;;;;;2.65;1.08;;;4.60;99.90;;;4.01;84.12;101249.91;5049799;28;20037;-45
2021/04/14 02:00:27;;;;;;;2.20;0.90;;;4.60;99.90;;;4.07;83.91;101262.47;5048606;28;20029;-47
2021/04/14 02:02:53;;;;;;;2.10;1.20;;;4.60;99.90;;;4.00;83.78;101261.13;5048177;28;20032;-45
2021/04/14 02:05:26;;;;;;;3.65;0.93;;;4.60;99.90;;;3.96;83.78;101259.63;5048238;28;20088;-48
2021/04/14 02:07:52;;;;;;;1.98;1.10;;;4.50;99.90;;;3.89;84.20;101256.53;5049389;28;20136;-50
2021/04/14 02:10:19;;;;;;;2.97;1.35;;;4.50;99.90;;;3.84;84.09;101258.53;5050600;28;20440;-48
2021/04/14 02:12:45;;;;;;;4.88;2.00;;;4.50;99.90;;;3.84;84.20;101255.94;5048039;28;20041;-47
2021/04/14 02:15:18;;;;;;;4.70;1.60;;;4.40;99.90;;;3.86;83.76;101254.13;5062203;28;20036;-46
2021/04/14 02:17:44;;;;;;;4.50;1.40;;;4.50;99.90;;;3.78;84.01;101253.69;5060846;28;20029;-46
2021/04/14 02:20:12;;;;;;;2.78;1.25;;;4.40;99.90;;;3.73;84.55;101252.31;5047824;28;20448;-46
2021/04/14 02:22:38;;;;;;;2.22;1.33;;;4.30;99.90;;;3.68;84.71;101260.28;5056949;28;20404;-50
2021/04/14 02:25:08;;;;;;;2.33;1.30;;;4.30;99.90;;;3.65;84.60;101261.28;5068130;28;20096;-48
2021/04/14 02:27:34;;;;;;;3.80;1.80;;;4.30;99.90;;;3.58;85.71;101262.50;5062541;28;20021;-48
2021/04/14 02:30:01;;;;;;;5.10;2.17;;;4.20;99.90;;;3.50;86.38;101256.09;5066691;28;20048;-46
2021/04/14 02:32:27;;;;;;;6.90;2.40;;;4.10;99.90;;;3.41;86.67;101257.38;5058820;28;20051;-50
2021/04/14 02:34:53;;;;;;;4.00;2.17;;;4.00;99.90;;;3.36;86.65;101264.53;5059137;28;20033;-46
2021/04/14 02:37:19;;;;;;;4.95;2.03;;;4.00;99.90;;;3.43;86.00;101250.41;5047931;28;20127;-46
2021/04/14 02:39:45;;;;;;;3.70;1.50;;;4.00;99.90;;;3.41;85.82;101256.56;5049148;28;20041;-49
2021/04/14 02:42:11;;;;;;;9.00;3.50;;;4.00;99.90;;;3.38;85.96;101249.81;5047302;28;20497;-50
2021/04/14 02:44:36;;;;;;;6.15;2.67;;;4.00;99.90;;;3.41;85.38;101251.41;5046768;28;20078;-46
2021/04/14 02:47:02;;;;;;;5.05;1.88;;;4.00;99.90;;;3.42;85.71;101247.91;5048455;28;20516;-44
2021/04/14 02:49:29;;;;;;;4.97;2.33;;;4.00;99.90;;;3.41;85.34;101244.50;5029531;28;20063;-47
2021/04/14 02:51:55;;;;;;;4.45;1.17;;;4.00;99.90;;;3.39;85.12;101248.06;5045790;28;20059;-47
2021/04/14 02:54:22;;;;;;;5.82;1.40;;;4.00;99.90;;;3.39;85.03;101254.06;5047821;28;20136;-47
2021/04/14 02:56:48;;;;;;;5.13;1.60;;;4.00;99.90;;;3.40;84.75;101249.75;5048239;28;20774;-46
2021/04/14 02:59:14;;;;;;;3.22;1.40;;;4.00;99.90;;;3.38;84.78;101257.53;5030064;28;20056;-49
2021/04/14 03:01:40;;;;;;;5.40;2.05;;;4.00;99.90;;;3.38;84.98;101252.41;5047804;28;20124;-47
2021/04/14 03:04:06;;;;;;;2.92;1.83;;;4.00;99.90;;;3.43;84.54;101245.25;5048230;28;20133;-44
2021/04/14 03:06:34;;;;;;;5.15;2.35;;;4.00;99.90;;;3.34;85.05;101250.88;5047484;28;20624;-46
2021/04/14 03:09:00;;;;;;;5.47;2.13;;;4.00;99.90;;;3.16;85.98;101251.84;5048309;28;20052;-47
2021/04/14 03:11:27;;;;;;;5.65;1.80;;;3.80;99.90;;;3.07;86.83;101258.28;5047407;28;20048;-47
2021/04/14 03:13:53;;;;;;;4.72;1.27;;;3.70;99.90;;;3.13;86.12;101247.69;5048244;28;20044;-47
2021/04/14 03:16:19;;;;;;;5.25;1.40;;;3.70;99.90;;;3.14;85.56;101249.34;5378887;22;20049;-49
2021/04/14 03:18:45;;;;;;;3.13;1.08;;;3.70;99.90;;;3.17;85.35;101256.09;5067613;28;20483;-44
2021/04/14 03:21:11;;;;;;;2.38;0.75;;;3.70;99.90;;;3.18;84.71;101256.00;5067553;28;20051;-48
2021/04/14 03:23:37;;;;;;;2.85;1.30;;;3.70;99.90;;;3.20;84.62;101256.78;5067423;28;20795;-45
2021/04/14 03:26:03;;;;;;;3.88;1.42;;;3.70;99.90;;;3.22;84.60;101248.97;5067326;28;20119;-49
2021/04/14 03:28:29;;;;;;;4.95;1.80;;;3.80;99.90;;;3.17;84.88;101249.19;5064797;28;20222;-48
2021/04/14 03:30:55;;;;;;;5.53;1.98;;;3.80;99.90;;;3.09;85.57;101248.75;5067229;28;20032;-45
2021/04/14 03:33:21;;;;;;;6.28;1.65;;;3.70;99.90;;;3.03;85.54;101251.63;5067239;28;20029;-49
2021/04/14 03:35:47;;;;;;;7.50;2.47;;;3.60;99.90;;;3.02;85.54;101252.53;5067109;28;20081;-47
2021/04/14 03:38:13;;;;;;;5.00;1.70;;;3.60;99.90;;;3.02;85.62;101255.13;5067186;28;20028;-44
2021/04/14 03:40:39;;;;;;;4.88;1.60;;;3.60;99.90;;;3.05;85.11;101254.97;5067105;28;20080;-44
2021/04/14 03:43:05;;;;;;;3.50;1.20;;;3.60;99.90;;;3.06;85.00;101258.38;5067058;28;20376;-44
2021/04/14 03:45:43;;;;;;;3.28;1.42;;;3.60;99.90;;;3.08;84.81;101259.97;5067220;28;20039;-50
2021/04/14 03:48:10;;;;;;;3.78;1.35;;;3.60;99.90;;;3.08;84.60;101253.97;5067181;28;20102;-44
2021/04/14 03:50:37;;;;;;;3.42;1.48;;;3.60;99.90;;;3.05;84.48;101256.69;5066996;28;20032;-47
2021/04/14 03:53:27;;;;;;;4.03;1.50;;;3.60;99.90;;;3.04;84.33;101250.72;5067415;28;20057;-45
2021/04/14 03:55:57;;;;;;;6.13;1.33;;;3.60;99.90;;;3.04;84.17;101257.63;5067001;28;20502;-49
2021/04/14 03:58:24;;;;;;;4.97;2.13;;;3.60;99.90;;;3.04;83.94;101252.47;5070762;28;20107;-46
2021/04/14 04:00:56;;;;;;;4.10;1.05;;;3.60;99.90;;;3.07;83.66;101249.75;5070886;28;20110;-46
2021/04/14 04:03:24;;;;;;;2.55;0.80;;;3.60;99.90;;;3.12;83.39;101255.50;5069186;28;20048;-46
2021/04/14 04:05:51;;;;;;;4.40;0.80;;;3.60;99.90;;;3.12;83.30;101255.50;5070627;28;20032;-48
2021/04/14 04:08:17;;;;;;;5.78;1.65;;;3.70;99.90;;;3.12;83.42;101260.63;5070678;28;20028;-46
2021/04/14 04:10:44;;;;;;;2.60;1.05;;;3.60;99.90;;;3.12;83.12;101260.63;5070413;28;20132;-45
2021/04/14 04:13:10;;;;;;;4.00;1.20;;;3.70;99.90;;;3.09;83.32;101253.91;5070420;28;20085;-47
2021/04/14 04:15:37;;;;;;;4.70;1.50;;;3.70;99.90;;;3.05;83.26;101260.13;5069828;28;20638;-48
2021/04/14 04:18:05;;;;;;;4.90;1.80;;;3.60;99.90;;;3.02;83.45;101260.25;5070359;28;20051;-46
2021/04/14 04:20:33;;;;;;;4.97;1.40;;;3.60;99.90;;;2.95;83.82;101259.72;5068741;28;20146;-49
2021/04/14 04:23:00;;;;;;;3.00;1.52;;;3.60;99.90;;;2.96;83.30;101263.97;5070317;28;20043;-45
2021/04/14 04:25:28;;;;;;;3.72;1.60;;;3.50;99.90;;;2.96;83.50;101265.72;5070186;28;20048;-44
2021/04/14 04:27:55;;;;;;;3.35;1.50;;;3.50;99.90;;;2.89;83.53;101269.50;5070295;28;20040;-44
2021/04/14 04:30:21;;;;;;;7.28;1.98;;;3.50;99.90;;;2.86;83.85;101272.22;5070326;28;20484;-46
2021/04/14 04:32:47;;;;;;;7.55;1.60;;;3.50;99.90;;;2.92;83.80;101277.06;5069889;28;20091;-51
2021/04/14 04:35:13;;;;;;;4.05;1.35;;;3.50;99.90;;;2.99;82.83;101278.44;5069889;28;20032;-50
2021/04/14 04:37:39;;;;;;;2.85;1.00;;;3.50;99.90;;;3.00;82.80;101278.38;5069882;28;20025;-46
2021/04/14 04:40:07;;;;;;;6.43;1.63;;;3.50;99.90;;;3.00;82.79;101273.22;5068456;28;20434;-51
2021/04/14 04:42:34;;;;;;;4.63;1.40;;;3.60;99.90;;;2.99;83.04;101281.00;5070209;28;20124;-49
2021/04/14 04:45:01;;;;;;;4.22;1.40;;;3.60;99.90;;;3.03;83.05;101281.69;5069996;28;20033;-47
2021/04/14 04:47:27;;;;;;;5.05;1.38;;;3.60;99.90;;;3.08;82.59;101279.72;5069546;28;20067;-48
2021/04/14 04:49:54;;;;;;;3.55;1.40;;;3.70;99.90;;;3.15;82.21;101270.78;5069776;28;20511;-52
2021/04/14 04:52:20;;;;;;;5.53;1.58;;;3.70;99.90;;;3.21;82.48;101285.94;5069937;28;20028;-46
2021/04/14 04:54:46;;;;;;;7.25;2.22;;;3.80;99.90;;;3.23;81.85;101289.25;5069623;28;20377;-45
2021/04/14 04:57:12;;;;;;;6.82;1.83;;;3.90;99.90;;;3.26;82.03;101289.09;5069841;28;20131;-46
2021/04/14 04:59:37;;;;;;;5.80;1.67;;;3.90;99.90;;;3.36;81.69;101285.13;5069315;28;20089;-51
2021/04/14 05:02:04;;;;;;;13.63;2.35;;;4.00;99.90;;;3.43;81.00;101283.91;5069065;28;20521;-50
2021/04/14 05:04:30;;;;;;;7.93;1.13;;;4.10;99.90;;;3.56;80.54;101289.25;5069642;28;20541;-49
2021/04/14 05:06:56;;;;;;;4.78;1.30;;;4.20;99.90;;;3.69;80.14;101292.03;5069384;28;20082;-46
2021/04/14 05:09:22;;;;;;;4.82;1.10;;;4.30;99.90;;;4.05;79.13;101294.41;5068564;28;20025;-45
2021/04/14 05:11:48;;;;;;;6.65;1.38;;;4.80;99.90;;;4.51;78.40;101293.53;5069208;28;20538;-48
2021/04/14 05:14:15;;;;;;;8.02;2.35;;;5.50;99.90;;;5.55;76.64;101288.31;5069030;28;20119;-48
2021/04/14 05:16:41;;;;;;;8.38;2.13;;;6.90;99.90;;;6.83;73.35;101294.94;5068666;28;20222;-46
2021/04/14 05:19:07;;;;;;;5.88;1.65;;;8.70;99.90;;;7.62;69.18;101300.78;5069423;28;20492;-45
2021/04/14 05:21:38;;;;;;;5.55;1.63;;;9.90;97.30;;;7.77;67.10;101305.88;5069201;28;20134;-46
2021/04/14 05:24:04;;;;;;;5.97;1.83;;;10.30;92.10;;;7.71;66.53;101295.91;5051464;28;20112;-50
2021/04/14 05:26:30;;;;;;;6.10;1.60;;;10.60;92.10;;;8.10;67.28;101306.09;5069059;28;20028;-50
2021/04/14 05:28:57;;;;;;;8.57;2.63;;;10.80;88.00;;;8.32;64.45;101306.28;5068781;28;20040;-49
2021/04/14 05:31:29;;;;;;;7.65;3.25;;;11.40;86.90;;;8.01;67.46;101305.94;5068725;28;20144;-45
2021/04/14 05:33:57;;;;;;;9.80;3.05;;;11.30;82.60;;;8.75;63.66;101308.34;5068823;28;20146;-47
2021/04/14 05:36:23;;;;;;;6.20;2.45;;;11.70;84.50;;;9.89;62.59;101301.44;5068726;28;20434;-51
2021/04/14 05:38:50;;;;;;;5.60;2.45;;;12.30;78.10;;;11.12;56.35;101308.84;5068817;28;20047;-47
2021/04/14 05:41:17;;;;;;;7.30;2.60;;;13.70;72.00;;;10.41;59.67;101313.78;5068672;28;20596;-46
2021/04/14 05:43:44;;;;;;;4.72;2.10;;;14.00;71.20;;;10.55;60.61;101310.06;5069040;28;20115;-46
2021/04/14 05:46:15;;;;;;;7.03;3.03;;;14.20;69.00;;;11.15;59.42;101309.44;5068862;28;20036;-47
2021/04/14 05:48:44;;;;;;;7.15;2.70;;;14.70;68.00;;;11.39;55.79;101305.69;5068508;28;20051;-49
2021/04/14 05:51:21;;;;;;;4.68;2.38;;;15.30;62.00;;;10.41;58.36;101305.97;5068339;28;20102;-50
2021/04/14 05:53:49;;;;;;;20.45;4.90;;;14.40;64.70;;;9.60;60.25;101304.50;5068329;28;20036;-49
2021/04/14 05:56:16;;;;;;;11.48;3.45;;;13.60;64.50;;;9.43;60.75;101305.00;5068164;28;20028;-44
2021/04/14 05:58:42;;;;;;;7.22;1.70;;;13.50;65.10;;;9.96;59.63;101307.78;5068242;28;20040;-47
2021/04/14 06:01:13;;;;;;;2.47;1.40;;;13.60;65.10;;;10.36;57.33;101315.13;5068772;28;20234;-45
2021/04/14 06:03:39;;;;;;;3.22;0.93;;;13.90;62.20;;;10.66;55.19;101317.03;5068355;28;20462;-51
2021/04/14 06:06:06;;;;;;;3.33;1.80;;;14.30;60.20;;;10.64;55.31;101317.16;5068070;28;20040;-53
2021/04/14 06:08:32;;;;;;;3.95;1.80;;;14.40;59.40;;;10.24;56.10;101309.94;5068023;28;20119;-51
2021/04/14 06:11:00;;;;;;;7.88;2.72;;;14.20;59.10;;;10.40;55.68;101309.50;5068005;28;20097;-48
2021/04/14 06:13:28;;;;;;;7.32;2.72;;;14.20;60.00;;;10.43;56.57;101305.84;5068139;28;20073;-49
2021/04/14 06:15:54;;;;;;;4.55;2.13;;;14.50;60.70;;;10.80;54.99;101314.97;5067728;28;20052;-45
2021/04/14 06:18:20;;;;;;;5.15;2.70;;;15.00;58.70;;;10.60;55.31;101313.97;5068022;28;20111;-48
2021/04/14 06:20:46;;;;;;;5.53;1.73;;;14.80;58.00;;;10.71;55.88;101315.69;5067931;28;20048;-49
2021/04/14 06:23:17;;;;;;;5.20;1.92;;;14.70;58.30;;;10.53;54.76;101323.22;5067665;28;20033;-50
2021/04/14 06:28:29;;;;;;;5.80;2.17;;;14.60;59.10;;;10.63;55.99;101315.50;5068220;28;20039;-52
2021/04/14 06:30:56;;;;;;;5.28;1.73;;;14.70;58.80;;;10.95;54.69;101318.06;5067817;28;20330;-50
2021/04/14 06:33:23;;;;;;;4.65;1.85;;;14.90;58.00;;;11.34;52.41;101316.56;5067659;28;20120;-54
2021/04/14 06:35:52;;;;;;;3.22;1.50;;;15.60;57.00;;;11.77;51.35;101318.16;5067446;28;20039;-52
2021/04/14 06:38:23;;;;;;;4.38;1.27;;;16.10;55.40;;;11.99;50.89;101324.94;5067563;28;20075;-48
2021/04/14 06:44:21;;;;;;;5.43;1.63;;;17.10;51.70;;;13.37;45.39;101312.47;5066397;28;20383;-46
2021/04/14 06:46:51;;;;;;;7.35;1.00;;;18.30;47.80;;;12.53;47.54;101311.44;5066428;28;20032;-52
2021/04/14 06:49:49;;;;;;;3.00;1.20;;;17.70;49.30;;;11.49;48.36;101314.41;5066470;28;20036;-45
2021/04/14 06:52:27;;;;;;;4.57;1.23;;;15.70;51.50;;;10.57;51.58;101323.78;5052137;28;20044;-46
2021/04/14 06:55:23;;;;;;;3.05;1.10;;;13.50;57.60;;;9.96;51.79;101321.63;5046261;28;20345;-54
2021/04/14 06:57:57;;;;;;;3.72;0.88;;;11.80;62.20;;;9.43;53.92;101324.97;5047620;28;20049;-50
2021/04/14 07:00:34;;;;;;;2.95;0.77;;;10.50;66.40;;;9.34;54.75;101321.28;5057896;28;20357;-48
2021/04/14 07:03:22;;;;;;;3.45;0.60;;;10.10;68.80;;;9.17;54.45;101325.16;5046179;28;20091;-47
2021/04/14 07:05:56;;;;;;;2.05;0.80;;;9.90;70.40;;;9.45;55.35;101321.28;5061095;28;20044;-46
2021/04/14 07:08:44;;;;;;;4.50;0.80;;;9.80;71.40;;;9.62;53.50;101320.00;5065289;28;20031;-50
2021/04/14 07:11:21;;;;;;;2.40;0.75;;;9.90;71.90;;;9.55;54.23;101327.44;5064961;28;20040;-53
2021/04/14 07:13:48;;;;;;;2.72;0.63;;;10.00;72.30;;;9.43;54.96;101325.78;5066350;28;20090;-48
2021/04/14 07:16:17;;;;;;;1.35;0.43;;;10.00;71.30;;;9.59;55.68;101321.06;5066229;28;20052;-49
2021/04/14 07:19:06;;;;;;;3.72;0.70;;;10.10;72.90;;;9.85;54.85;101320.84;5063100;28;20037;-49
2021/04/14 07:21:59;;;;;;;1.63;0.70;;;10.30;73.30;;;10.29;52.81;101323.41;5067375;28;20139;-48
2021/04/14 07:24:38;;;;;;;1.35;0.50;;;10.70;71.80;;;10.44;53.22;101328.34;5065942;28;20028;-46
2021/04/14 07:27:21;;;;;;;1.77;0.50;;;10.90;71.60;;;10.45;50.21;101335.19;5064953;28;20048;-49
2021/04/14 07:30:06;;;;;;;2.28;0.77;;;11.20;70.90;;;10.37;52.94;101327.19;5065914;28;20056;-50
2021/04/14 07:32:46;;;;;;;2.33;0.60;;;11.20;70.00;;;10.84;52.56;101325.97;5068043;28;20240;-52
2021/04/14 07:35:22;;;;;;;1.27;0.70;;;11.50;69.90;;;10.80;53.04;101328.00;5067764;28;20032;-45
2021/04/14 07:38:00;;;;;;;;;;;11.50;70.80;;;10.71;50.28;101323.53;5072102;28;20040;-51
2021/04/14 07:40:37;;;;;;;3.00;0.90;;;11.40;68.00;;;10.50;52.72;101325.25;5070185;28;20350;-50
2021/04/14 07:43:38;;;;;;;3.83;0.73;;;11.20;70.00;;;10.68;51.80;101328.16;5070527;28;20044;-51
2021/04/14 07:46:08;;;;;;;2.80;0.90;;;11.20;72.20;;;11.10;53.34;101327.22;5070037;28;20064;-54
2021/04/14 07:48:38;;;;;;;2.13;0.82;;;11.40;73.10;;;11.53;52.88;101327.06;5069837;28;20090;-49
2021/04/14 07:51:18;;;;;;;1.45;0.65;;;11.70;73.60;;;11.58;51.89;101332.72;5069516;28;20068;-49
2021/04/14 07:54:01;;;;;;;3.85;1.10;;;12.00;72.30;;;11.53;51.43;101329.69;5071056;28;20040;-50
2021/04/14 07:56:39;;;;;;;2.47;0.70;;;12.00;71.00;;;11.88;51.92;101328.47;5070113;28;20044;-55
2021/04/14 07:59:10;;;;;;;4.60;0.98;;;12.30;71.70;;;11.86;52.08;101333.00;5070181;28;20024;-51
2021/04/14 08:01:37;;;;;;;3.17;0.88;;;12.30;72.00;;;11.86;52.39;101327.78;5069541;28;20055;-56
2021/04/14 08:04:32;;;;;;;4.40;1.35;;;12.20;71.70;;;11.64;50.27;101324.38;5066632;28;20387;-52
2021/04/14 08:07:11;;;;;;;4.45;1.08;;;12.20;70.20;;;12.05;50.79;101327.84;5052513;28;20037;-52
2021/04/14 08:09:57;;;;;;;4.20;0.85;;;12.40;71.50;;;12.60;49.05;101326.44;5050696;28;20029;-47
2021/04/14 08:12:35;;;;;;;4.20;0.95;;;12.80;71.10;;;12.75;48.18;101328.66;5050750;28;20033;-45
2021/04/14 08:15:29;;;;;;;1.85;0.70;;;13.10;70.00;;;12.88;44.86;101326.56;5050854;28;20088;-50
2021/04/14 08:18:53;;;;;;;1.70;0.60;;;13.20;65.80;;;12.51;43.52;101323.81;5050649;28;20129;-45
2021/04/14 08:21:51;;;;;;;1.38;0.50;;;13.00;63.50;;;12.59;41.96;101323.97;4978301;28;20422;-49
2021/04/14 08:24:41;;;;;;;1.58;0.30;;;13.00;60.80;;;12.37;43.20;101329.44;4988435;28;20129;-49
2021/04/14 08:27:21;;;;;;;2.25;0.32;;;12.90;61.10;;;12.88;44.57;101324.78;4972822;28;20062;-52
2021/04/14 08:30:05;;;;;;;2.60;0.45;;;13.20;62.80;;;13.34;44.02;101320.63;4971675;28;20034;-54
2021/04/14 08:32:42;;;;;;;2.38;0.50;;;13.60;63.70;;;13.51;45.40;101316.44;4988216;28;20070;-47
2021/04/14 08:35:26;;;;;;;1.58;0.73;;;13.80;64.00;;;12.77;45.60;101316.25;4985881;28;20052;-53
2021/04/14 08:38:17;;;;;;;2.67;0.85;;;13.50;62.10;;;13.04;45.75;101311.16;4978731;28;20069;-51
2021/04/14 08:40:52;;;;;;;1.23;0.50;;;13.40;64.30;;;12.82;45.72;101309.66;4981681;28;20088;-53
2021/04/14 08:43:37;;;;;;;2.00;0.85;;;13.50;61.60;;;13.10;44.31;101312.38;4986367;28;20193;-51
2021/04/14 08:46:18;;;;;;;1.48;0.50;;;13.70;60.80;;;13.74;43.83;101304.63;4971004;28;20046;-50
2021/04/14 08:48:50;;;;;;;1.55;0.47;;;14.10;62.40;;;14.24;44.10;101299.78;4972473;28;20230;-52
2021/04/14 08:51:17;;;;;;;3.00;0.60;;;14.50;62.00;;;14.69;43.62;101298.09;4987776;28;20412;-48
2021/04/14 08:53:46;;;;;;;2.20;0.50;;;15.00;60.80;;;15.19;42.71;101295.69;5067625;28;20033;-57
2021/04/14 08:56:13;;;;;;;1.00;0.50;;;15.40;60.50;;;15.01;41.85;101302.81;5068117;28;20064;-55
2021/04/14 08:58:39;;;;;;;1.23;0.40;;;15.50;57.30;;;14.47;41.84;101299.41;5069677;28;20064;-47
2021/04/14 09:01:13;;;;;;;1.75;0.40;;;15.20;56.20;;;14.68;39.85;101299.09;5069895;28;20032;-53
2021/04/14 09:03:42;;;;;;;1.23;0.40;;;15.20;55.30;;;14.75;39.58;101294.88;5070249;28;20045;-50
2021/04/14 09:06:10;;;;;;;0.60;0.30;;;15.20;54.30;;;14.88;37.89;101290.06;5051905;28;20494;-53
2021/04/14 09:08:38;;;;;;;1.58;0.40;;;15.30;53.90;;;15.18;39.46;101284.38;5068669;28;20472;-52
2021/04/14 09:11:16;;;;;;;0.90;0.40;;;15.50;55.10;;;15.50;38.43;101293.44;5051421;28;20035;-55
2021/04/14 09:13:44;;;;;;;0.80;0.40;;;15.80;54.10;;;15.40;35.82;101283.03;5069117;28;20040;-52
2021/04/14 09:16:12;;;;;;;3.15;0.40;;;16.00;52.30;;;15.62;37.92;101291.34;5068700;28;20055;-54
2021/04/14 09:18:43;;;;;;;1.13;0.40;;;16.00;53.20;;;16.19;36.45;101285.31;5069154;28;20037;-48
2021/04/14 09:21:15;;;;;;;1.30;0.30;;;16.30;53.30;;;16.13;35.99;101291.22;5067619;28;20041;-48
2021/04/14 09:23:56;;;;;;;0.73;0.30;;;16.60;52.00;;;15.48;34.46;101283.06;5068624;28;20046;-57
2021/04/14 09:26:37;;;;;;;2.13;0.30;;;16.30;49.80;;;14.89;33.15;101289.94;5067345;28;20048;-49
2021/04/14 09:29:23;;;;;;;5.35;1.00;;;15.90;49.00;;;14.25;34.70;101287.50;5067208;28;20028;-54
2021/04/14 09:31:52;;;;;;;1.13;0.40;;;15.20;48.00;;;13.68;38.32;101280.81;5067468;28;20039;-50
2021/04/14 09:34:36;;;;;;;1.17;0.40;;;14.60;51.70;;;14.38;35.42;101279.28;5068776;28;20529;-47
2021/04/14 09:37:11;;;;;;;1.25;0.30;;;14.90;50.40;;;15.08;36.37;101275.81;5067054;28;20158;-54
2021/04/14 09:39:46;;;;;;;0.50;0.30;;;15.20;52.60;;;16.02;35.14;101280.19;5065720;28;20037;-50
2021/04/14 09:42:41;;;;;;;0.57;0.30;;;16.00;51.50;;;16.10;30.50;101277.56;5065296;28;20393;-50
2021/04/14 09:45:26;;;;;;;1.23;0.30;;;16.50;46.20;;;16.42;30.21;101263.66;5063437;28;20029;-49
2021/04/14 09:47:54;;;;;;;0.80;0.20;;;16.70;45.40;;;16.27;34.06;101266.94;5062834;28;20491;-56
2021/04/14 09:50:29;;;;;;;1.13;0.22;;;16.70;47.70;;;16.81;31.06;101261.22;5066491;28;20051;-50
2021/04/14 09:53:22;;;;;;;3.60;0.20;;;17.30;45.60;;;16.00;31.01;101269.84;5064093;28;20516;-50
2021/04/14 09:55:57;;;;;;;0.73;0.30;;;17.00;48.10;;;15.12;35.74;101265.81;5059663;28;20389;-50
2021/04/14 09:58:23;;;;;;;2.58;0.25;;;16.20;48.00;;;15.14;35.35;101272.53;5068433;28;20040;-51
2021/04/14 10:01:15;;;;;;;1.27;0.20;;;15.80;47.70;;;15.75;34.12;101261.06;5068227;28;20046;-53
2021/04/14 10:03:44;;;;;;;0.70;0.32;;;16.10;48.50;;;15.68;33.12;101256.59;5067066;28;20040;-55
2021/04/14 10:06:24;;;;;;;0.50;0.20;;;16.40;47.10;;;14.71;33.30;101255.00;5067954;28;20040;-54
2021/04/14 10:09:19;;;;;;;4.88;0.30;;;15.80;48.40;;;14.57;34.57;101261.66;5066532;28;20047;-50
2021/04/14 10:11:45;;;;;;;8.07;0.40;;;15.30;49.50;;;14.88;36.18;101259.41;5066578;28;20056;-48
2021/04/14 10:14:19;;;;;;;2.33;0.30;;;15.50;48.70;;;15.44;34.66;101252.84;5068317;28;20191;-56
2021/04/14 10:16:49;;;;;;;0.65;0.30;;;15.80;49.00;;;15.31;35.01;101255.09;5065495;28;20044;-48
2021/04/14 10:19:27;;;;;;;1.90;0.40;;;16.00;49.00;;;14.82;34.63;101257.41;5066260;28;20215;-52
2021/04/14 10:21:54;;;;;;;0.95;0.40;;;15.70;48.10;;;14.22;37.23;101254.56;5065934;28;20445;-49
2021/04/14 10:24:20;;;;;;;0.98;0.30;;;15.30;49.20;;;13.68;37.60;101259.88;5064957;28;20454;-50
2021/04/14 10:26:54;;;;;;;0.60;0.20;;;14.80;49.20;;;13.63;37.20;101256.88;5057339;28;20387;-55
2021/04/14 10:29:48;;;;;;;1.20;0.30;;;14.50;50.40;;;13.48;37.77;101254.72;5053863;28;20036;-49
2021/04/14 10:32:26;;;;;;;1.92;0.30;;;14.30;50.20;;;13.24;37.68;101257.81;5063857;28;20071;-55
2021/04/14 10:34:51;;;;;;;1.13;0.30;;;14.10;50.70;;;13.22;39.60;101253.72;5067226;28;20040;-54
2021/04/14 10:37:24;;;;;;;1.08;0.40;;;14.00;52.40;;;13.05;38.54;101246.56;5056464;28;20037;-51
2021/04/14 10:39:52;;;;;;;0.95;0.30;;;13.90;51.70;;;12.56;39.26;101256.28;5068191;28;20037;-54
2021/04/14 10:42:28;;;;;;;2.78;0.50;;;13.50;51.10;;;12.03;40.05;101255.81;5055584;28;20040;-47
2021/04/14 10:45:06;;;;;;;0.98;0.40;;;12.90;53.10;;;11.87;40.35;101254.53;5065687;28;20036;-47